Shokyu Maru — JG5288 — position and weather

sailwx.info

Track history (hours):
 
Tides and Currents Weather Stations Pressure Air Temp Water Temp Dewpoint Dewpoint Depression Visibility Wind Speed Wind Dir Waves Ship Positions

Shokyu Maru

Last reported at 2017-Feb-24 01:32 UTC. Time now 2017-Feb-24 02:03 UTC.
Position N 35°39' E 139°58'.

Length 91 m; draft 5.2 m.

Type: Ship. MMSI: 431000253.

Date/timePositionNaut miles runAvg speedWind from/ knotsBaromVisibWave heightAir tempDewpointWater temp
2017-Feb-24 01:32N 35°39' E 139°58'1 0.3
2017-Feb-23 21:31N 35°38' E 139°59'4 0.4
2017-Feb-23 10:30N 35°35' E 139°55'8 8.5
2017-Feb-23 09:33N 35°31' E 139°46'0 0.4
2017-Feb-23 08:27N 35°32' E 139°46'0 0.0
2017-Feb-23 07:33N 35°32' E 139°46'0 0.0
2017-Feb-23 06:33N 35°32' E 139°46'0 0.0
2017-Feb-23 05:33N 35°32' E 139°46'3 3.1
2017-Feb-23 04:33N 35°29' E 139°43'3 3.5
2017-Feb-23 03:34N 35°27' E 139°47'8 7.9
2017-Feb-23 02:33N 35°33' E 139°53'7 1.4
2017-Feb-22 21:33N 35°39' E 139°58'4 4.3
2017-Feb-22 20:33N 35°36' E 139°55'0 0.0
2017-Feb-22 19:33N 35°36' E 139°55'0 0.0
2017-Feb-22 18:32N 35°36' E 139°55'0 0.0
2017-Feb-22 17:20N 35°36' E 139°55'0 0.1
2017-Feb-22 16:30N 35°36' E 139°55'0 0.0
2017-Feb-22 15:29N 35°36' E 139°55'0 0.0
2017-Feb-22 14:30N 35°36' E 139°55'0 0.0
2017-Feb-22 13:30N 35°36' E 139°55'0 0.0
2017-Feb-22 12:33N 35°36' E 139°55'0 0.0
2017-Feb-22 11:26N 35°36' E 139°55'0 0.0
2017-Feb-22 10:32N 35°36' E 139°55'5 5.1
2017-Feb-22 09:33N 35°32' E 139°51'5 4.8
2017-Feb-22 08:33N 35°30' E 139°45'0 0.0
2017-Feb-22 07:33N 35°30' E 139°45'0 0.0
2017-Feb-22 06:33N 35°30' E 139°45'0 0.3
2017-Feb-22 05:33N 35°30' E 139°45'3 2.9
2017-Feb-22 04:33N 35°28' E 139°48'10 9.9
2017-Feb-22 03:33N 35°35' E 139°56'4 0.7
2017-Feb-21 21:33N 35°39' E 139°58'4 0.8
2017-Feb-21 16:33N 35°36' E 139°55'0 0.0
2017-Feb-21 14:18N 35°36' E 139°55'0 0.0
2017-Feb-21 13:30N 35°36' E 139°55'0 0.0
2017-Feb-21 12:31N 35°36' E 139°55'0 0.0
2017-Feb-21 11:22N 35°36' E 139°55'0 0.0
2017-Feb-21 10:33N 35°36' E 139°55'0 0.0
2017-Feb-21 09:33N 35°36' E 139°55'0 0.0
2017-Feb-21 08:26N 35°36' E 139°55'0 0.1
2017-Feb-21 07:31N 35°36' E 139°55'1 0.5
2017-Feb-21 06:29N 35°35' E 139°55'9 9.2
2017-Feb-21 05:33N 35°31' E 139°46'1 0.8
2017-Feb-21 04:31N 35°31' E 139°46'0 0.0
2017-Feb-21 03:31N 35°31' E 139°46'0 0.0
2017-Feb-21 02:31N 35°31' E 139°46'0 0.0
2017-Feb-21 01:31N 35°31' E 139°46'0 0.0
2017-Feb-21 00:28N 35°31' E 139°46'0 0.0
2017-Feb-20 23:31N 35°31' E 139°46'0 0.0
2017-Feb-20 22:31N 35°31' E 139°46'0 0.0
2017-Feb-20 21:23N 35°31' E 139°46'5 5.8
2017-Feb-20 20:33N 35°27' E 139°43'9 8.8
2017-Feb-20 19:33N 35°33' E 139°51'3 2.4
2017-Feb-20 18:28N 35°35' E 139°53'0 0.0
2017-Feb-20 17:30N 35°35' E 139°53'0 0.0
2017-Feb-20 16:16N 35°35' E 139°53'0 0.1
2017-Feb-20 15:32N 35°35' E 139°53'0 0.0
2017-Feb-20 14:22N 35°35' E 139°53'0 0.0
2017-Feb-20 12:24N 35°35' E 139°53'0 0.1
2017-Feb-20 11:32N 35°35' E 139°53'0 0.2
2017-Feb-20 10:31N 35°35' E 139°53'0 0.0
2017-Feb-20 09:32N 35°35' E 139°53'0 0.0
2017-Feb-20 08:31N 35°35' E 139°53'0 0.1
2017-Feb-20 07:33N 35°35' E 139°53'0 0.0
2017-Feb-20 06:26N 35°35' E 139°53'0 0.1
2017-Feb-20 05:29N 35°35' E 139°53'0 0.0
2017-Feb-20 04:30N 35°35' E 139°53'3 3.3
2017-Feb-20 03:33N 35°37' E 139°57'3 0.4
2017-Feb-19 21:30N 35°39' E 139°58'4 3.3
2017-Feb-19 20:16N 35°36' E 139°55'0 0.0
2017-Feb-19 17:06N 35°36' E 139°55'0 0.0
2017-Feb-19 15:33N 35°36' E 139°55'0 0.1
2017-Feb-19 14:30N 35°36' E 139°55'0 0.1
2017-Feb-19 13:33N 35°36' E 139°55'8 8.3
2017-Feb-19 12:33N 35°30' E 139°47'1 1.4
2017-Feb-19 11:33N 35°31' E 139°46'0 0.0
2017-Feb-19 10:33N 35°31' E 139°46'0 0.0
2017-Feb-19 09:33N 35°31' E 139°46'0 0.0
2017-Feb-19 08:33N 35°31' E 139°46'0 0.0
2017-Feb-19 07:33N 35°31' E 139°46'0 0.0
2017-Feb-19 06:33N 35°31' E 139°46'0 0.0
2017-Feb-19 05:33N 35°31' E 139°46'4 4.4
2017-Feb-19 04:33N 35°27' E 139°44'1111.1
2017-Feb-19 03:33N 35°34' E 139°55'6 1.0
2017-Feb-18 21:30N 35°39' E 139°58'4 1.2
2017-Feb-18 18:09N 35°36' E 139°55'0 0.0
2017-Feb-18 17:33N 35°36' E 139°55'0 0.0
2017-Feb-18 16:33N 35°36' E 139°55'0 0.0
2017-Feb-18 15:33N 35°36' E 139°55'0 0.0
2017-Feb-18 14:24N 35°36' E 139°55'0 0.0
2017-Feb-18 12:30N 35°36' E 139°55'0 0.0
2017-Feb-18 11:21N 35°36' E 139°55'0 0.0
2017-Feb-18 10:33N 35°36' E 139°55'0 0.0
2017-Feb-18 09:24N 35°36' E 139°55'0 0.0
2017-Feb-18 08:33N 35°36' E 139°55'0 0.0
2017-Feb-18 07:12N 35°36' E 139°55'0 0.1
2017-Feb-18 06:33N 35°36' E 139°55'5 4.9
2017-Feb-18 05:33N 35°32' E 139°59'1 0.1
2017-Feb-18 00:33N 35°32' E 139°60'9 7.9
2017-Feb-17 23:28N 35°41' E 139°59'0 0.0
2017-Feb-17 22:28N 35°41' E 139°59'0 0.0
2017-Feb-17 21:31N 35°41' E 139°59'0 0.0
2017-Feb-17 20:25N 35°41' E 139°59'0 0.0
2017-Feb-17 19:31N 35°41' E 139°59'0 0.0
2017-Feb-17 18:31N 35°41' E 139°59'0 0.0
2017-Feb-17 17:31N 35°41' E 139°59'0 0.0
2017-Feb-17 16:31N 35°41' E 139°59'0 0.0
2017-Feb-17 15:31N 35°41' E 139°59'0 0.0
2017-Feb-17 14:31N 35°41' E 139°59'0 0.0
2017-Feb-17 13:25N 35°41' E 139°59'0 0.0
2017-Feb-17 12:28N 35°41' E 139°59'0 0.0
2017-Feb-17 11:31N 35°41' E 139°59'0 0.0
2017-Feb-17 10:22N 35°41' E 139°59'0 0.0
2017-Feb-17 09:31N 35°41' E 139°59'0 0.0
2017-Feb-17 08:31N 35°41' E 139°59'0 0.0
2017-Feb-17 07:31N 35°41' E 139°59'0 0.0
2017-Feb-17 06:31N 35°41' E 139°59'0 0.0
2017-Feb-17 05:22N 35°41' E 139°59'0 0.5
2017-Feb-17 04:33N 35°40' E 139°59'4 4.3
2017-Feb-17 03:33N 35°37' E 139°56'2 0.3
2017-Feb-16 21:24N 35°38' E 139°58'4 4.4
2017-Feb-16 20:33N 35°35' E 139°55'0 0.0
2017-Feb-16 19:32N 35°35' E 139°55'0 0.0
2017-Feb-16 18:32N 35°35' E 139°55'0 0.0
2017-Feb-16 17:33N 35°35' E 139°55'0 0.0
2017-Feb-16 16:32N 35°35' E 139°55'0 0.0
2017-Feb-16 15:32N 35°35' E 139°55'0 0.1
2017-Feb-16 14:32N 35°35' E 139°55'0 0.1
2017-Feb-16 13:33N 35°36' E 139°55'8 8.4
2017-Feb-16 12:33N 35°30' E 139°47'1 1.0
2017-Feb-16 11:31N 35°30' E 139°45'0 0.0
2017-Feb-16 10:31N 35°30' E 139°45'0 0.0
2017-Feb-16 09:31N 35°30' E 139°45'0 0.0
2017-Feb-16 08:31N 35°30' E 139°45'0 0.0
2017-Feb-16 07:31N 35°30' E 139°45'0 0.0
2017-Feb-16 06:31N 35°30' E 139°45'3 3.6
2017-Feb-16 05:34N 35°27' E 139°44'8 7.9
2017-Feb-16 04:34N 35°31' E 139°52'1010.1
2017-Feb-16 03:33N 35°40' E 139°57'2 0.3
2017-Feb-15 21:29N 35°39' E 139°58'4 0.7
2017-Feb-15 15:29N 35°36' E 139°55'0 0.1
2017-Feb-15 14:33N 35°36' E 139°55'8 1.5
2017-Feb-15 09:18N 35°30' E 140°02'2 2.8
2017-Feb-15 08:32N 35°31' E 139°60'0 0.0
2017-Feb-15 07:32N 35°31' E 139°60'0 0.0
2017-Feb-15 06:33N 35°31' E 139°60'0 0.0
2017-Feb-15 05:31N 35°31' E 139°60'6 5.9
2017-Feb-15 04:33N 35°36' E 139°56'3 0.5
2017-Feb-14 22:20N 35°38' E 139°59'4 0.4
2017-Feb-14 13:12N 35°36' E 139°55'6 9.6
2017-Feb-14 12:34N 35°31' E 139°50'3 3.1
2017-Feb-14 11:31N 35°31' E 139°46'0 0.0
2017-Feb-14 10:31N 35°31' E 139°46'0 0.0
2017-Feb-14 09:31N 35°31' E 139°46'0 0.0
2017-Feb-14 08:31N 35°31' E 139°46'0 0.0
2017-Feb-14 07:31N 35°31' E 139°46'0 0.0
2017-Feb-14 06:31N 35°31' E 139°46'4 4.6
2017-Feb-14 05:33N 35°28' E 139°42'6 6.2
2017-Feb-14 04:33N 35°30' E 139°50'9 8.8
2017-Feb-14 03:32N 35°36' E 139°57'  
Track history (hours):
 
Tides and Currents Weather Stations Pressure Air Temp Water Temp Dewpoint Dewpoint Depression Visibility Wind Speed Wind Dir Waves Ship Positions

Shokyu Maru

Last reported at 2017-Feb-24 01:32 UTC. Time now 2017-Feb-24 02:03 UTC.
Position N 35°39' E 139°58'.

Length 91 m; draft 5.2 m.

Type: Ship. MMSI: 431000253.

Date/timePositionNaut miles runAvg speedWind from/ knotsBaromVisibWave heightAir tempDewpointWater temp
2017-Feb-24 01:32N 35°39' E 139°58'1 0.3
2017-Feb-23 21:31N 35°38' E 139°59'4 0.4
2017-Feb-23 10:30N 35°35' E 139°55'8 8.5
2017-Feb-23 09:33N 35°31' E 139°46'0 0.4
2017-Feb-23 08:27N 35°32' E 139°46'0 0.0
2017-Feb-23 07:33N 35°32' E 139°46'0 0.0
2017-Feb-23 06:33N 35°32' E 139°46'0 0.0
2017-Feb-23 05:33N 35°32' E 139°46'3 3.1
2017-Feb-23 04:33N 35°29' E 139°43'3 3.5
2017-Feb-23 03:34N 35°27' E 139°47'8 7.9
2017-Feb-23 02:33N 35°33' E 139°53'7 1.4
2017-Feb-22 21:33N 35°39' E 139°58'4 4.3
2017-Feb-22 20:33N 35°36' E 139°55'0 0.0
2017-Feb-22 19:33N 35°36' E 139°55'0 0.0
2017-Feb-22 18:32N 35°36' E 139°55'0 0.0
2017-Feb-22 17:20N 35°36' E 139°55'0 0.1
2017-Feb-22 16:30N 35°36' E 139°55'0 0.0
2017-Feb-22 15:29N 35°36' E 139°55'0 0.0
2017-Feb-22 14:30N 35°36' E 139°55'0 0.0
2017-Feb-22 13:30N 35°36' E 139°55'0 0.0
2017-Feb-22 12:33N 35°36' E 139°55'0 0.0
2017-Feb-22 11:26N 35°36' E 139°55'0 0.0
2017-Feb-22 10:32N 35°36' E 139°55'5 5.1
2017-Feb-22 09:33N 35°32' E 139°51'5 4.8
2017-Feb-22 08:33N 35°30' E 139°45'0 0.0
2017-Feb-22 07:33N 35°30' E 139°45'0 0.0
2017-Feb-22 06:33N 35°30' E 139°45'0 0.3
2017-Feb-22 05:33N 35°30' E 139°45'3 2.9
2017-Feb-22 04:33N 35°28' E 139°48'10 9.9
2017-Feb-22 03:33N 35°35' E 139°56'4 0.7
2017-Feb-21 21:33N 35°39' E 139°58'4 0.8
2017-Feb-21 16:33N 35°36' E 139°55'0 0.0
2017-Feb-21 14:18N 35°36' E 139°55'0 0.0
2017-Feb-21 13:30N 35°36' E 139°55'0 0.0
2017-Feb-21 12:31N 35°36' E 139°55'0 0.0
2017-Feb-21 11:22N 35°36' E 139°55'0 0.0
2017-Feb-21 10:33N 35°36' E 139°55'0 0.0
2017-Feb-21 09:33N 35°36' E 139°55'0 0.0
2017-Feb-21 08:26N 35°36' E 139°55'0 0.1
2017-Feb-21 07:31N 35°36' E 139°55'1 0.5
2017-Feb-21 06:29N 35°35' E 139°55'9 9.2
2017-Feb-21 05:33N 35°31' E 139°46'1 0.8
2017-Feb-21 04:31N 35°31' E 139°46'0 0.0
2017-Feb-21 03:31N 35°31' E 139°46'0 0.0
2017-Feb-21 02:31N 35°31' E 139°46'0 0.0
2017-Feb-21 01:31N 35°31' E 139°46'0 0.0
2017-Feb-21 00:28N 35°31' E 139°46'0 0.0
2017-Feb-20 23:31N 35°31' E 139°46'0 0.0
2017-Feb-20 22:31N 35°31' E 139°46'0 0.0
2017-Feb-20 21:23N 35°31' E 139°46'5 5.8
2017-Feb-20 20:33N 35°27' E 139°43'9 8.8
2017-Feb-20 19:33N 35°33' E 139°51'3 2.4
2017-Feb-20 18:28N 35°35' E 139°53'0 0.0
2017-Feb-20 17:30N 35°35' E 139°53'0 0.0
2017-Feb-20 16:16N 35°35' E 139°53'0 0.1
2017-Feb-20 15:32N 35°35' E 139°53'0 0.0
2017-Feb-20 14:22N 35°35' E 139°53'0 0.0
2017-Feb-20 12:24N 35°35' E 139°53'0 0.1
2017-Feb-20 11:32N 35°35' E 139°53'0 0.2
2017-Feb-20 10:31N 35°35' E 139°53'0 0.0
2017-Feb-20 09:32N 35°35' E 139°53'0 0.0
2017-Feb-20 08:31N 35°35' E 139°53'0 0.1
2017-Feb-20 07:33N 35°35' E 139°53'0 0.0
2017-Feb-20 06:26N 35°35' E 139°53'0 0.1
2017-Feb-20 05:29N 35°35' E 139°53'0 0.0
2017-Feb-20 04:30N 35°35' E 139°53'3 3.3
2017-Feb-20 03:33N 35°37' E 139°57'3 0.4
2017-Feb-19 21:30N 35°39' E 139°58'4 3.3
2017-Feb-19 20:16N 35°36' E 139°55'0 0.0
2017-Feb-19 17:06N 35°36' E 139°55'0 0.0
2017-Feb-19 15:33N 35°36' E 139°55'0 0.1
2017-Feb-19 14:30N 35°36' E 139°55'0 0.1
2017-Feb-19 13:33N 35°36' E 139°55'8 8.3
2017-Feb-19 12:33N 35°30' E 139°47'1 1.4
2017-Feb-19 11:33N 35°31' E 139°46'0 0.0
2017-Feb-19 10:33N 35°31' E 139°46'0 0.0
2017-Feb-19 09:33N 35°31' E 139°46'0 0.0
2017-Feb-19 08:33N 35°31' E 139°46'0 0.0
2017-Feb-19 07:33N 35°31' E 139°46'0 0.0
2017-Feb-19 06:33N 35°31' E 139°46'0 0.0
2017-Feb-19 05:33N 35°31' E 139°46'4 4.4
2017-Feb-19 04:33N 35°27' E 139°44'1111.1
2017-Feb-19 03:33N 35°34' E 139°55'6 1.0
2017-Feb-18 21:30N 35°39' E 139°58'4 1.2
2017-Feb-18 18:09N 35°36' E 139°55'0 0.0
2017-Feb-18 17:33N 35°36' E 139°55'0 0.0
2017-Feb-18 16:33N 35°36' E 139°55'0 0.0
2017-Feb-18 15:33N 35°36' E 139°55'0 0.0
2017-Feb-18 14:24N 35°36' E 139°55'0 0.0
2017-Feb-18 12:30N 35°36' E 139°55'0 0.0
2017-Feb-18 11:21N 35°36' E 139°55'0 0.0
2017-Feb-18 10:33N 35°36' E 139°55'0 0.0
2017-Feb-18 09:24N 35°36' E 139°55'0 0.0
2017-Feb-18 08:33N 35°36' E 139°55'0 0.0
2017-Feb-18 07:12N 35°36' E 139°55'0 0.1
2017-Feb-18 06:33N 35°36' E 139°55'5 4.9
2017-Feb-18 05:33N 35°32' E 139°59'1 0.1
2017-Feb-18 00:33N 35°32' E 139°60'9 7.9
2017-Feb-17 23:28N 35°41' E 139°59'0 0.0
2017-Feb-17 22:28N 35°41' E 139°59'0 0.0
2017-Feb-17 21:31N 35°41' E 139°59'0 0.0
2017-Feb-17 20:25N 35°41' E 139°59'0 0.0
2017-Feb-17 19:31N 35°41' E 139°59'0 0.0
2017-Feb-17 18:31N 35°41' E 139°59'0 0.0
2017-Feb-17 17:31N 35°41' E 139°59'0 0.0
2017-Feb-17 16:31N 35°41' E 139°59'0 0.0
2017-Feb-17 15:31N 35°41' E 139°59'0 0.0
2017-Feb-17 14:31N 35°41' E 139°59'0 0.0
2017-Feb-17 13:25N 35°41' E 139°59'0 0.0
2017-Feb-17 12:28N 35°41' E 139°59'0 0.0
2017-Feb-17 11:31N 35°41' E 139°59'0 0.0
2017-Feb-17 10:22N 35°41' E 139°59'0 0.0
2017-Feb-17 09:31N 35°41' E 139°59'0 0.0
2017-Feb-17 08:31N 35°41' E 139°59'0 0.0
2017-Feb-17 07:31N 35°41' E 139°59'0 0.0
2017-Feb-17 06:31N 35°41' E 139°59'0 0.0
2017-Feb-17 05:22N 35°41' E 139°59'0 0.5
2017-Feb-17 04:33N 35°40' E 139°59'4 4.3
2017-Feb-17 03:33N 35°37' E 139°56'2 0.3
2017-Feb-16 21:24N 35°38' E 139°58'4 4.4
2017-Feb-16 20:33N 35°35' E 139°55'0 0.0
2017-Feb-16 19:32N 35°35' E 139°55'0 0.0
2017-Feb-16 18:32N 35°35' E 139°55'0 0.0
2017-Feb-16 17:33N 35°35' E 139°55'0 0.0
2017-Feb-16 16:32N 35°35' E 139°55'0 0.0
2017-Feb-16 15:32N 35°35' E 139°55'0 0.1
2017-Feb-16 14:32N 35°35' E 139°55'0 0.1
2017-Feb-16 13:33N 35°36' E 139°55'8 8.4
2017-Feb-16 12:33N 35°30' E 139°47'1 1.0
2017-Feb-16 11:31N 35°30' E 139°45'0 0.0
2017-Feb-16 10:31N 35°30' E 139°45'0 0.0
2017-Feb-16 09:31N 35°30' E 139°45'0 0.0
2017-Feb-16 08:31N 35°30' E 139°45'0 0.0
2017-Feb-16 07:31N 35°30' E 139°45'0 0.0
2017-Feb-16 06:31N 35°30' E 139°45'3 3.6
2017-Feb-16 05:34N 35°27' E 139°44'8 7.9
2017-Feb-16 04:34N 35°31' E 139°52'1010.1
2017-Feb-16 03:33N 35°40' E 139°57'2 0.3
2017-Feb-15 21:29N 35°39' E 139°58'4 0.7
2017-Feb-15 15:29N 35°36' E 139°55'0 0.1
2017-Feb-15 14:33N 35°36' E 139°55'8 1.5
2017-Feb-15 09:18N 35°30' E 140°02'2 2.8
2017-Feb-15 08:32N 35°31' E 139°60'0 0.0
2017-Feb-15 07:32N 35°31' E 139°60'0 0.0
2017-Feb-15 06:33N 35°31' E 139°60'0 0.0
2017-Feb-15 05:31N 35°31' E 139°60'6 5.9
2017-Feb-15 04:33N 35°36' E 139°56'3 0.5
2017-Feb-14 22:20N 35°38' E 139°59'4 0.4
2017-Feb-14 13:12N 35°36' E 139°55'6 9.6
2017-Feb-14 12:34N 35°31' E 139°50'3 3.1
2017-Feb-14 11:31N 35°31' E 139°46'0 0.0
2017-Feb-14 10:31N 35°31' E 139°46'0 0.0
2017-Feb-14 09:31N 35°31' E 139°46'0 0.0
2017-Feb-14 08:31N 35°31' E 139°46'0 0.0
2017-Feb-14 07:31N 35°31' E 139°46'0 0.0
2017-Feb-14 06:31N 35°31' E 139°46'4 4.6
2017-Feb-14 05:33N 35°28' E 139°42'6 6.2
2017-Feb-14 04:33N 35°30' E 139°50'9 8.8
2017-Feb-14 03:32N 35°36' E 139°57'  

Dump ship's entire track history